createdAt,value
2022-12-31T00:02:34.144Z,66.86
2022-12-31T00:12:42.378Z,65.99
2022-12-31T00:17:47.230Z,63.50
2022-12-31T00:22:50.606Z,61.74
2022-12-31T00:27:56.431Z,60.66
2022-12-31T00:33:01.219Z,60.66
2022-12-31T00:38:04.710Z,57.42
2022-12-31T00:43:10.193Z,57.24
2022-12-31T00:48:14.976Z,59.75
2022-12-31T00:53:18.505Z,59.24
2022-12-31T00:58:22.119Z,58.12
2022-12-31T01:03:27.203Z,58.83
2022-12-31T01:08:30.826Z,57.27
2022-12-31T01:13:34.423Z,57.14
2022-12-31T01:19:07.111Z,56.03
2022-12-31T01:24:08.580Z,55.42
2022-12-31T01:29:13.511Z,54.87
2022-12-31T01:34:18.225Z,54.34
2022-12-31T01:39:21.579Z,53.71
2022-12-31T01:44:50.724Z,53.08
2022-12-31T01:50:01.729Z,52.93
2022-12-31T01:55:13.817Z,52.48
2022-12-31T02:00:18.274Z,52.20
2022-12-31T02:05:28.363Z,49.81
2022-12-31T02:10:31.807Z,52.81
2022-12-31T02:15:42.908Z,64.61
2022-12-31T02:21:03.883Z,51.29
2022-12-31T02:26:28.314Z,54.27
2022-12-31T02:31:36.712Z,54.63
2022-12-31T02:36:46.278Z,50.12
2022-12-31T02:41:53.799Z,59.45
2022-12-31T02:47:08.682Z,60.37
2022-12-31T02:52:20.093Z,49.08
2022-12-31T02:57:30.766Z,58.54
2022-12-31T03:02:38.266Z,49.62
2022-12-31T03:07:42.875Z,47.27
2022-12-31T03:12:49.570Z,46.51
2022-12-31T03:17:56.943Z,45.70
2022-12-31T03:23:00.426Z,41.97
2022-12-31T03:28:07.662Z,40.23
2022-12-31T03:33:14.844Z,36.84
2022-12-31T03:38:19.250Z,48.04
2022-12-31T03:43:22.740Z,37.16
2022-12-31T03:48:29.939Z,40.96
2022-12-31T03:53:35.989Z,31.48
2022-12-31T03:58:39.361Z,27.40
2022-12-31T04:03:44.270Z,26.83
2022-12-31T04:08:47.663Z,25.58
2022-12-31T04:13:53.793Z,25.24
2022-12-31T04:18:58.668Z,25.39
2022-12-31T04:24:02.730Z,25.41
2022-12-31T04:29:06.103Z,24.75
2022-12-31T04:34:10.858Z,25.19
2022-12-31T04:39:14.269Z,27.97
2022-12-31T04:44:17.670Z,24.85
2022-12-31T04:49:24.706Z,25.42
2022-12-31T04:54:30.624Z,25.68
2022-12-31T04:59:36.380Z,26.07
2022-12-31T05:04:43.947Z,24.95
2022-12-31T05:09:47.399Z,29.81
2022-12-31T05:14:50.864Z,31.35
2022-12-31T05:19:55.787Z,38.21
2022-12-31T05:25:00.164Z,34.37
2022-12-31T05:30:03.528Z,38.20
2022-12-31T05:35:09.112Z,36.27
2022-12-31T05:40:13.501Z,34.11
2022-12-31T05:45:21.058Z,34.25
2022-12-31T05:50:28.724Z,32.95
2022-12-31T05:55:34.979Z,33.75
2022-12-31T06:00:43.778Z,33.75
2022-12-31T06:05:52.044Z,33.13
2022-12-31T06:10:57.991Z,33.40
2022-12-31T06:16:05.894Z,34.54
2022-12-31T06:21:12.844Z,32.38
2022-12-31T06:26:18.544Z,32.18
2022-12-31T06:31:22.122Z,31.74
2022-12-31T06:36:27.189Z,32.55
2022-12-31T06:41:30.651Z,32.01
2022-12-31T06:46:34.179Z,31.56
2022-12-31T06:51:39.138Z,30.35
2022-12-31T06:56:42.911Z,30.76
2022-12-31T07:01:52.684Z,32.35
2022-12-31T07:07:04.580Z,31.59
2022-12-31T07:12:14.967Z,35.55
2022-12-31T07:17:28.409Z,32.68
2022-12-31T07:22:33.683Z,31.68
2022-12-31T07:27:49.986Z,31.10
2022-12-31T07:33:12.673Z,29.66
2022-12-31T07:38:23.496Z,28.63
2022-12-31T07:43:34.585Z,30.22
2022-12-31T07:48:38.199Z,27.54
2022-12-31T07:53:45.241Z,27.72
2022-12-31T07:59:01.165Z,26.44
2022-12-31T08:04:10.861Z,30.09
2022-12-31T08:09:26.885Z,31.66
2022-12-31T08:14:32.026Z,36.07
2022-12-31T08:19:35.696Z,26.21
2022-12-31T08:24:53.568Z,24.85
2022-12-31T08:30:03.999Z,27.11
2022-12-31T08:35:19.276Z,24.90
2022-12-31T08:40:29.478Z,24.72
2022-12-31T08:45:37.853Z,24.21
2022-12-31T08:50:42.758Z,24.16
2022-12-31T08:55:53.875Z,23.78
2022-12-31T09:00:59.570Z,23.87
2022-12-31T09:06:12.425Z,23.55
2022-12-31T09:11:24.854Z,21.09
2022-12-31T09:16:37.903Z,18.52
2022-12-31T09:21:45.262Z,15.76
2022-12-31T09:26:57.544Z,18.25
2022-12-31T09:32:09.954Z,15.41
2022-12-31T09:37:17.284Z,15.19
2022-12-31T09:42:41.988Z,14.23
2022-12-31T09:48:13.731Z,13.70
2022-12-31T09:53:28.775Z,14.43
2022-12-31T09:58:42.247Z,15.55
2022-12-31T10:04:03.907Z,19.36
2022-12-31T10:09:19.387Z,20.51
2022-12-31T10:14:34.344Z,22.69
2022-12-31T10:19:58.711Z,20.88
2022-12-31T10:25:38.463Z,20.98
2022-12-31T10:30:49.796Z,20.40
2022-12-31T10:36:02.347Z,19.45
2022-12-31T10:41:33.561Z,20.23
2022-12-31T10:46:58.758Z,18.56
2022-12-31T10:52:20.617Z,22.70
2022-12-31T10:57:50.247Z,20.45
2022-12-31T11:03:10.597Z,19.67
2022-12-31T11:08:29.619Z,20.88
2022-12-31T11:13:56.432Z,28.55
2022-12-31T11:19:15.104Z,19.89
2022-12-31T11:24:29.628Z,19.21
2022-12-31T11:29:44.411Z,19.25
2022-12-31T11:35:08.314Z,18.38
2022-12-31T11:40:22.487Z,17.24
2022-12-31T11:45:36.629Z,20.93
2022-12-31T11:50:46.411Z,20.79
2022-12-31T11:56:01.437Z,25.32
2022-12-31T12:01:13.252Z,21.53
2022-12-31T12:06:28.961Z,28.89
2022-12-31T12:11:36.538Z,21.96
2022-12-31T12:16:42.649Z,20.51
2022-12-31T12:21:50.324Z,24.13
2022-12-31T12:26:55.377Z,20.66
2022-12-31T12:32:02.727Z,43.11
2022-12-31T12:37:23.158Z,16.89
2022-12-31T12:42:30.088Z,20.60
2022-12-31T12:47:37.840Z,17.45
2022-12-31T12:53:03.910Z,18.87
2022-12-31T12:58:19.348Z,19.97
2022-12-31T13:04:14.695Z,18.84
2022-12-31T13:09:37.147Z,37.56
2022-12-31T13:14:48.731Z,20.04
2022-12-31T13:20:00.772Z,18.87
2022-12-31T13:25:12.837Z,26.87
2022-12-31T13:30:20.127Z,16.19
2022-12-31T13:35:29.706Z,19.06
2022-12-31T13:40:47.367Z,20.04
2022-12-31T13:46:02.100Z,17.78
2022-12-31T13:51:14.937Z,17.46
2022-12-31T13:56:24.111Z,17.67
2022-12-31T14:01:34.986Z,17.74
2022-12-31T14:06:43.927Z,17.02
2022-12-31T14:11:57.303Z,24.91
2022-12-31T14:17:07.197Z,21.75
2022-12-31T14:22:20.917Z,19.98
2022-12-31T14:27:29.054Z,20.16
2022-12-31T14:32:47.976Z,20.96
2022-12-31T14:37:59.783Z,17.60
2022-12-31T14:43:13.458Z,15.98
2022-12-31T14:48:31.161Z,17.98
2022-12-31T14:53:34.579Z,20.71
2022-12-31T14:58:39.986Z,21.28
2022-12-31T15:03:46.336Z,36.82
2022-12-31T15:09:01.113Z,27.87
2022-12-31T15:14:36.868Z,28.85
2022-12-31T15:20:16.968Z,27.06
2022-12-31T15:25:27.626Z,26.23
2022-12-31T15:30:34.344Z,15.98
2022-12-31T15:35:48.707Z,14.19
2022-12-31T15:40:53.257Z,17.10
2022-12-31T15:45:59.068Z,17.83
2022-12-31T15:51:07.721Z,18.08
2022-12-31T15:56:19.829Z,16.77
2022-12-31T16:01:27.441Z,16.63
2022-12-31T16:06:35.327Z,18.39
2022-12-31T16:11:41.839Z,15.61
2022-12-31T16:16:52.604Z,17.26
2022-12-31T16:22:02.569Z,20.45
2022-12-31T16:27:12.899Z,27.50
2022-12-31T16:32:17.919Z,17.73
2022-12-31T16:37:23.907Z,16.54
2022-12-31T16:42:30.765Z,17.82
2022-12-31T16:47:36.601Z,18.94
2022-12-31T16:52:50.402Z,19.63
2022-12-31T16:57:57.990Z,29.67
2022-12-31T17:03:17.926Z,17.45
2022-12-31T17:08:29.600Z,20.67
2022-12-31T17:13:48.512Z,20.25
2022-12-31T17:18:54.751Z,18.99
2022-12-31T17:24:03.035Z,16.60
2022-12-31T17:29:08.047Z,14.53
2022-12-31T17:34:23.838Z,14.66
2022-12-31T17:39:42.699Z,14.90
2022-12-31T17:44:46.278Z,18.79
2022-12-31T17:49:49.866Z,38.09
2022-12-31T17:54:54.810Z,17.82
2022-12-31T17:59:58.481Z,17.11
2022-12-31T18:05:02.207Z,21.20
2022-12-31T18:10:07.593Z,15.83
2022-12-31T18:15:15.950Z,16.63
2022-12-31T18:20:21.994Z,21.86
2022-12-31T18:25:26.896Z,20.26
2022-12-31T18:30:30.321Z,26.43
2022-12-31T18:36:06.975Z,24.13
2022-12-31T18:41:00.820Z,18.37
2022-12-31T18:46:10.947Z,20.28
2022-12-31T18:51:15.138Z,16.87
2022-12-31T18:56:20.935Z,16.31
2022-12-31T19:01:29.572Z,16.12
2022-12-31T19:06:33.125Z,19.00
2022-12-31T19:11:43.596Z,17.72
2022-12-31T19:16:57.453Z,19.13
2022-12-31T19:22:00.940Z,19.10
2022-12-31T19:27:05.845Z,27.76
2022-12-31T19:32:15.996Z,27.13
2022-12-31T19:37:21.041Z,22.57
2022-12-31T19:42:32.163Z,19.98
2022-12-31T19:47:40.938Z,19.14
2022-12-31T19:52:45.650Z,21.64
2022-12-31T19:57:50.529Z,25.85
2022-12-31T20:02:54.180Z,19.97
2022-12-31T20:08:00.367Z,22.30
2022-12-31T20:13:10.574Z,19.30
2022-12-31T20:18:21.019Z,17.49
2022-12-31T20:23:26.819Z,16.33
2022-12-31T20:28:31.633Z,18.84
2022-12-31T20:33:35.290Z,15.11
2022-12-31T20:38:39.234Z,12.85
2022-12-31T20:43:44.249Z,15.53
2022-12-31T20:48:48.544Z,16.83
2022-12-31T20:53:57.383Z,26.43
2022-12-31T20:59:05.527Z,17.55
2022-12-31T21:04:09.218Z,18.05
2022-12-31T21:09:15.222Z,17.27
2022-12-31T21:14:20.183Z,16.39
2022-12-31T21:19:23.616Z,16.87
2022-12-31T21:24:27.060Z,16.30
2022-12-31T21:29:34.914Z,17.34
2022-12-31T21:34:40.448Z,17.95
2022-12-31T21:39:43.867Z,23.71
2022-12-31T21:44:48.736Z,21.98
2022-12-31T21:49:52.357Z,26.35
2022-12-31T21:55:14.297Z,15.99
2022-12-31T22:00:42.971Z,15.36
2022-12-31T22:05:48.204Z,14.61
2022-12-31T22:10:55.137Z,13.12
2022-12-31T22:16:05.563Z,14.34
2022-12-31T22:21:17.856Z,14.77
2022-12-31T22:26:27.571Z,15.98
2022-12-31T22:31:32.373Z,16.56
2022-12-31T22:36:36.121Z,15.11
2022-12-31T22:41:41.602Z,19.14
2022-12-31T22:46:49.303Z,16.62
2022-12-31T22:51:59.915Z,14.87
2022-12-31T22:57:06.412Z,15.90
2022-12-31T23:02:12.312Z,16.93
2022-12-31T23:07:19.153Z,37.55
2022-12-31T23:12:30.860Z,34.62
2022-12-31T23:18:26.204Z,308.08
2022-12-31T23:24:15.790Z,420.05
2022-12-31T23:29:47.428Z,122.33
2022-12-31T23:35:07.769Z,41.52
2022-12-31T23:40:21.837Z,35.10
2022-12-31T23:45:31.138Z,28.87
2022-12-31T23:50:38.149Z,25.37
2022-12-31T23:55:41.633Z,24.42
